Weather at Seattle Tacoma International Airport

Public forecast

Using degrees Fahrenheit for public forecast. Weather courtesy of forecast.io.

Current aviation weather report (METAR) for Seattle Tacoma International Airport

Retrieved 2021/10/22 03:53 UTC (1 hour ago):

KSEA 220353Z 15009KT 4SM RA BR FEW017 BKN041 OVC050 13/12 A2981 RMK AO2 SLP099 P0016 T01280117

Aviation forecast (TAF) for Seattle Tacoma International Airport

Retrieved 2021-10-22 00:42 UTC (5 hours ago):

TAF KSEA 212339Z 2200/2306 12014G22KT P6SM VCSH OVC060 FM220200 15012KT P6SM -RA OVC035 FM220600 16009KT 6SM RA BR OVC022 FM221400 18006KT 6SM -SHRA OVC015 FM221900 19007KT P6SM VCSH BKN022 OVC040 FM230200 20007KT P6SM VCSH BKN035